Time;durP1;ratioP1;P1;durP2;ratioP2;P2;SDS_P1;SDS_P2;PMS_P1;PMS_P2;Temp;Humidity;BMP_temperature;BMP_pressure;BME280_temperature;BME280_humidity;BME280_pressure;Samples;Min_cycle;Max_cycle;Signal;HPM_P1;HPM_P2
2022/09/13 00:00:56;;;;;;;21.08;11.88;;;;;;;;;;4990910;28;20030;-63
2022/09/13 00:03:23;;;;;;;21.77;11.63;;;;;;;;;;4989518;28;20510;-63
2022/09/13 00:05:50;;;;;;;18.08;10.90;;;;;;;;;;4990183;28;20058;-63
2022/09/13 00:08:17;;;;;;;19.17;10.98;;;;;;;;;;4989548;28;20097;-63
2022/09/13 00:10:45;;;;;;;18.92;11.25;;;;;;;;;;4988949;28;20053;-64
2022/09/13 00:13:12;;;;;;;17.23;10.90;;;;;;;;;;4989688;28;20046;-65
2022/09/13 00:15:46;;;;;;;17.83;11.05;;;;;;;;;;4990517;28;20045;-62
2022/09/13 00:18:13;;;;;;;21.77;10.77;;;;;;;;;;4987950;28;20034;-62
2022/09/13 00:20:40;;;;;;;20.70;10.77;;;;;;;;;;4988337;28;20030;-63
2022/09/13 00:23:06;;;;;;;20.02;11.15;;;;;;;;;;4989702;28;20034;-63
2022/09/13 00:25:33;;;;;;;23.27;11.95;;;;;;;;;;4988793;28;20045;-64
2022/09/13 00:28:00;;;;;;;17.30;10.85;;;;;;;;;;4992155;28;20415;-63
2022/09/13 00:30:26;;;;;;;19.77;11.40;;;;;;;;;;4989104;28;20055;-64
2022/09/13 00:32:53;;;;;;;20.35;11.07;;;;;;;;;;4991568;28;20038;-65
2022/09/13 00:35:20;;;;;;;18.27;11.27;;;;;;;;;;4992609;28;20045;-65
2022/09/13 00:37:46;;;;;;;19.08;11.05;;;;;;;;;;4988840;28;20067;-65
2022/09/13 00:40:13;;;;;;;22.83;11.63;;;;;;;;;;4989750;28;20046;-64
2022/09/13 00:42:40;;;;;;;17.33;10.75;;;;;;;;;;4989190;28;20046;-63
2022/09/13 00:45:06;;;;;;;18.73;10.45;;;;;;;;;;4990688;28;20100;-64
2022/09/13 00:47:39;;;;;;;16.83;10.45;;;;;;;;;;4989761;28;20038;-62
2022/09/13 00:50:16;;;;;;;17.73;9.48;;;;;;;;;;4990178;28;20085;-63
2022/09/13 00:52:45;;;;;;;22.00;9.80;;;;;;;;;;4989364;28;20043;-63
2022/09/13 00:55:16;;;;;;;18.83;10.10;;;;;;;;;;4991260;28;20046;-63
2022/09/13 00:57:42;;;;;;;17.15;10.05;;;;;;;;;;4991560;28;20038;-64
2022/09/13 01:00:12;;;;;;;16.40;9.52;;;;;;;;;;4992936;28;20046;-63
2022/09/13 01:02:47;;;;;;;16.27;9.45;;;;;;;;;;4994077;28;20483;-64
2022/09/13 01:05:14;;;;;;;16.75;9.23;;;;;;;;;;4995824;28;20039;-64
2022/09/13 01:07:41;;;;;;;17.98;9.45;;;;;;;;;;4989936;28;20126;-63
2022/09/13 01:10:08;;;;;;;18.52;9.25;;;;;;;;;;4989858;28;20081;-67
2022/09/13 01:12:39;;;;;;;14.00;8.98;;;;;;;;;;4988437;28;20037;-64
2022/09/13 01:15:06;;;;;;;17.45;9.80;;;;;;;;;;4988380;28;20764;-63
2022/09/13 01:17:34;;;;;;;19.95;9.25;;;;;;;;;;4987960;28;20033;-64
2022/09/13 01:20:01;;;;;;;17.65;9.13;;;;;;;;;;4987816;28;20042;-64
2022/09/13 01:22:30;;;;;;;17.30;9.10;;;;;;;;;;4987193;28;20041;-63
2022/09/13 01:25:12;;;;;;;20.55;9.93;;;;;;;;;;4987911;28;20032;-62
2022/09/13 01:27:54;;;;;;;18.60;8.90;;;;;;;;;;4987859;28;20042;-65
2022/09/13 01:31:36;;;;;;;16.33;9.35;;;;;;;;;;5061003;27;20447;-64
2022/09/13 01:34:12;;;;;;;14.23;8.93;;;;;;;;;;5045214;28;20039;-65
2022/09/13 01:36:57;;;;;;;19.15;8.65;;;;;;;;;;5045121;28;20029;-65
2022/09/13 01:39:31;;;;;;;13.52;8.88;;;;;;;;;;5044717;28;20072;-64
2022/09/13 01:41:57;;;;;;;19.10;9.73;;;;;;;;;;5026082;28;20033;-64
2022/09/13 01:44:31;;;;;;;24.92;9.90;;;;;;;;;;5044436;28;20040;-64
2022/09/13 01:47:00;;;;;;;19.08;9.77;;;;;;;;;;5045176;28;20037;-64
2022/09/13 01:49:27;;;;;;;17.17;9.30;;;;;;;;;;5045434;28;20111;-64
2022/09/13 01:52:04;;;;;;;20.65;10.30;;;;;;;;;;5045793;28;20031;-65
2022/09/13 01:54:49;;;;;;;25.27;10.82;;;;;;;;;;5045604;28;20033;-66
2022/09/13 01:57:17;;;;;;;19.70;10.65;;;;;;;;;;5044554;28;20036;-64
2022/09/13 01:59:52;;;;;;;18.40;9.95;;;;;;;;;;5043442;28;20183;-64
2022/09/13 02:02:23;;;;;;;18.33;10.70;;;;;;;;;;5045354;28;20078;-64
2022/09/13 02:05:07;;;;;;;20.35;10.43;;;;;;;;;;5044417;28;20037;-65
2022/09/13 02:07:45;;;;;;;20.13;10.30;;;;;;;;;;5044346;28;20032;-66
2022/09/13 02:10:31;;;;;;;15.32;9.48;;;;;;;;;;5044348;28;20072;-64
2022/09/13 02:12:59;;;;;;;22.15;10.80;;;;;;;;;;5043114;28;20126;-64
2022/09/13 02:15:38;;;;;;;21.55;10.60;;;;;;;;;;5044693;28;20126;-64
2022/09/13 02:18:10;;;;;;;18.85;10.52;;;;;;;;;;5044559;28;20041;-64
2022/09/13 02:20:38;;;;;;;18.08;10.38;;;;;;;;;;5041574;28;20028;-65
2022/09/13 02:23:09;;;;;;;17.55;10.60;;;;;;;;;;5044301;28;21655;-65
2022/09/13 02:25:36;;;;;;;16.13;10.13;;;;;;;;;;5042499;28;20111;-63
2022/09/13 02:28:06;;;;;;;20.23;11.55;;;;;;;;;;5043806;28;20063;-64
2022/09/13 02:30:35;;;;;;;17.33;10.13;;;;;;;;;;5041960;28;20053;-63
2022/09/13 02:33:05;;;;;;;18.30;10.60;;;;;;;;;;5043091;28;20033;-65
2022/09/13 02:35:36;;;;;;;18.48;10.35;;;;;;;;;;5043103;28;20052;-63
2022/09/13 02:38:05;;;;;;;24.20;11.40;;;;;;;;;;5042611;28;20510;-63
2022/09/13 02:40:43;;;;;;;22.60;11.70;;;;;;;;;;5043150;28;20040;-63
2022/09/13 02:43:15;;;;;;;19.48;10.85;;;;;;;;;;5028217;28;20056;-64
2022/09/13 02:45:45;;;;;;;22.27;11.27;;;;;;;;;;5024661;28;20493;-64
2022/09/13 02:48:35;;;;;;;24.00;10.60;;;;;;;;;;5020833;28;20282;-63
2022/09/13 02:51:12;;;;;;;22.55;11.68;;;;;;;;;;5026825;28;20061;-63
2022/09/13 02:53:38;;;;;;;19.70;10.82;;;;;;;;;;5032721;28;20034;-64
2022/09/13 02:56:11;;;;;;;25.98;12.02;;;;;;;;;;5006305;28;20041;-64
2022/09/13 02:58:44;;;;;;;20.67;11.55;;;;;;;;;;5005982;28;20065;-64
2022/09/13 03:01:11;;;;;;;23.67;12.02;;;;;;;;;;5006741;28;20041;-63
2022/09/13 03:03:38;;;;;;;24.30;12.15;;;;;;;;;;5007394;28;20099;-64
2022/09/13 03:06:05;;;;;;;20.30;11.68;;;;;;;;;;5006637;28;20546;-64
2022/09/13 03:08:32;;;;;;;21.35;12.02;;;;;;;;;;4992321;28;20149;-64
2022/09/13 03:11:01;;;;;;;26.05;12.70;;;;;;;;;;5004493;28;20050;-65
2022/09/13 03:13:57;;;;;;;24.10;12.13;;;;;;;;;;5005093;28;20037;-62
2022/09/13 03:16:43;;;;;;;25.20;12.13;;;;;;;;;;4937138;28;20591;-64
2022/09/13 03:19:28;;;;;;;17.92;11.88;;;;;;;;;;5005964;28;20077;-63
2022/09/13 03:22:07;;;;;;;27.83;12.05;;;;;;;;;;5004235;28;20038;-64
2022/09/13 03:24:33;;;;;;;23.15;12.40;;;;;;;;;;5003284;28;20125;-65
2022/09/13 03:27:10;;;;;;;25.27;13.40;;;;;;;;;;5005501;28;20050;-62
2022/09/13 03:29:44;;;;;;;23.90;12.77;;;;;;;;;;5003410;28;20065;-67
2022/09/13 03:32:46;;;;;;;22.05;11.50;;;;;;;;;;5007186;28;20095;-66
2022/09/13 03:35:31;;;;;;;23.63;12.07;;;;;;;;;;4944166;28;20058;-66
2022/09/13 03:38:16;;;;;;;25.13;11.20;;;;;;;;;;5000020;28;20081;-67
2022/09/13 03:40:53;;;;;;;21.80;11.48;;;;;;;;;;5003174;28;20388;-66
2022/09/13 03:43:20;;;;;;;18.38;11.85;;;;;;;;;;5002052;28;20046;-67
2022/09/13 03:45:49;;;;;;;21.52;11.63;;;;;;;;;;5002794;28;20075;-66
2022/09/13 03:48:17;;;;;;;22.00;11.75;;;;;;;;;;5004395;28;20033;-66
2022/09/13 03:50:46;;;;;;;23.77;12.50;;;;;;;;;;5003586;28;20046;-66
2022/09/13 03:53:15;;;;;;;23.73;12.30;;;;;;;;;;5003089;28;20902;-68
2022/09/13 03:55:42;;;;;;;23.75;12.10;;;;;;;;;;5002867;28;20559;-66
2022/09/13 03:58:13;;;;;;;24.25;12.65;;;;;;;;;;5003933;28;20052;-66
2022/09/13 04:00:40;;;;;;;27.80;12.65;;;;;;;;;;5003513;28;20152;-66
2022/09/13 04:03:07;;;;;;;23.83;12.45;;;;;;;;;;5005917;28;20204;-67
2022/09/13 04:05:34;;;;;;;27.55;13.43;;;;;;;;;;5005511;28;20046;-66
2022/09/13 04:08:04;;;;;;;25.80;13.15;;;;;;;;;;5021605;28;20092;-65
2022/09/13 04:10:31;;;;;;;26.17;13.60;;;;;;;;;;5005970;28;20540;-65
2022/09/13 04:12:59;;;;;;;21.30;13.45;;;;;;;;;;5006728;28;20038;-66
2022/09/13 04:15:26;;;;;;;22.77;13.25;;;;;;;;;;5005058;28;20065;-64
2022/09/13 04:17:53;;;;;;;23.63;13.50;;;;;;;;;;5006806;28;20104;-66
2022/09/13 04:20:20;;;;;;;27.92;14.00;;;;;;;;;;5008329;28;20064;-65
2022/09/13 04:22:56;;;;;;;23.08;14.20;;;;;;;;;;5006824;28;20057;-65
2022/09/13 04:25:23;;;;;;;28.50;14.57;;;;;;;;;;5022732;28;20144;-67
2022/09/13 04:28:01;;;;;;;29.30;15.02;;;;;;;;;;5008365;28;20076;-65
2022/09/13 04:30:28;;;;;;;23.17;14.23;;;;;;;;;;4991666;28;20049;-66
2022/09/13 04:32:58;;;;;;;29.05;14.38;;;;;;;;;;5009179;28;20034;-66
2022/09/13 04:35:25;;;;;;;26.52;14.32;;;;;;;;;;5008224;28;20046;-66
2022/09/13 04:37:55;;;;;;;28.48;15.50;;;;;;;;;;5008977;28;20758;-66
2022/09/13 04:40:22;;;;;;;26.20;15.45;;;;;;;;;;5007149;28;20042;-66
2022/09/13 04:42:49;;;;;;;28.23;16.67;;;;;;;;;;5008946;28;20046;-66
2022/09/13 04:45:16;;;;;;;25.20;15.32;;;;;;;;;;5004856;28;20057;-66
2022/09/13 04:47:42;;;;;;;30.52;16.38;;;;;;;;;;5002074;28;20056;-66
2022/09/13 04:50:09;;;;;;;29.15;15.98;;;;;;;;;;5005566;28;20103;-66
2022/09/13 04:52:36;;;;;;;26.35;15.73;;;;;;;;;;5009022;28;20053;-65
2022/09/13 04:55:03;;;;;;;29.00;17.48;;;;;;;;;;5009472;28;20033;-65
2022/09/13 04:57:29;;;;;;;32.70;17.50;;;;;;;;;;5009353;28;20093;-66
2022/09/13 04:59:56;;;;;;;31.15;16.63;;;;;;;;;;5008069;28;20034;-67
2022/09/13 05:02:22;;;;;;;29.80;16.27;;;;;;;;;;5002828;28;20034;-66
2022/09/13 05:04:49;;;;;;;30.67;17.13;;;;;;;;;;5004730;28;20042;-65
2022/09/13 05:07:16;;;;;;;32.00;16.88;;;;;;;;;;5004790;28;20773;-66
2022/09/13 05:09:43;;;;;;;31.73;16.50;;;;;;;;;;5003662;28;20041;-66
2022/09/13 05:12:10;;;;;;;29.17;16.17;;;;;;;;;;5004836;28;20077;-66
2022/09/13 05:14:37;;;;;;;28.65;16.55;;;;;;;;;;5005219;28;20177;-66
2022/09/13 05:17:03;;;;;;;27.88;16.25;;;;;;;;;;5004292;28;20065;-65
2022/09/13 05:19:30;;;;;;;30.30;17.10;;;;;;;;;;5004144;28;20928;-66
2022/09/13 05:21:57;;;;;;;34.05;18.25;;;;;;;;;;5005008;28;20069;-66
2022/09/13 05:24:23;;;;;;;32.55;17.58;;;;;;;;;;5007335;28;20042;-66
2022/09/13 05:26:50;;;;;;;33.25;18.83;;;;;;;;;;5009225;28;20042;-68
2022/09/13 05:29:16;;;;;;;33.28;17.65;;;;;;;;;;5011275;28;20061;-66
2022/09/13 05:31:43;;;;;;;34.72;17.98;;;;;;;;;;5007866;28;20499;-67
2022/09/13 05:34:15;;;;;;;33.75;17.73;;;;;;;;;;5008842;28;20052;-67
2022/09/13 05:36:42;;;;;;;33.83;18.35;;;;;;;;;;5007052;28;20548;-68
2022/09/13 05:39:12;;;;;;;34.92;18.42;;;;;;;;;;5005359;28;20045;-67
2022/09/13 05:41:39;;;;;;;34.22;19.80;;;;;;;;;;5005421;28;20124;-66
2022/09/13 05:44:07;;;;;;;33.30;18.42;;;;;;;;;;5020569;28;20536;-66
2022/09/13 05:46:33;;;;;;;32.75;18.13;;;;;;;;;;5002167;28;20560;-65
2022/09/13 05:49:00;;;;;;;27.63;18.30;;;;;;;;;;5005192;28;20026;-66
2022/09/13 05:51:27;;;;;;;35.05;18.52;;;;;;;;;;5001994;28;20049;-66
2022/09/13 05:53:55;;;;;;;31.70;18.75;;;;;;;;;;5006358;28;20097;-65
2022/09/13 05:56:23;;;;;;;38.38;19.63;;;;;;;;;;5005342;28;20363;-67
2022/09/13 05:58:50;;;;;;;35.80;18.20;;;;;;;;;;5003333;28;20050;-66
2022/09/13 06:01:19;;;;;;;34.75;18.05;;;;;;;;;;5004040;28;20046;-66
2022/09/13 06:03:49;;;;;;;31.90;18.02;;;;;;;;;;5018801;28;20115;-65
2022/09/13 06:06:16;;;;;;;37.00;20.13;;;;;;;;;;5004976;28;20115;-66
2022/09/13 06:08:43;;;;;;;34.80;18.23;;;;;;;;;;5000966;28;20029;-65
2022/09/13 06:11:11;;;;;;;37.92;19.48;;;;;;;;;;5002669;28;20046;-65
2022/09/13 06:13:38;;;;;;;34.75;19.67;;;;;;;;;;5005125;28;20034;-66
2022/09/13 06:16:06;;;;;;;34.00;18.88;;;;;;;;;;5008673;28;20083;-66
2022/09/13 06:18:34;;;;;;;33.15;19.40;;;;;;;;;;5008839;28;20186;-66
2022/09/13 06:21:02;;;;;;;33.30;19.33;;;;;;;;;;5008935;28;20301;-67
2022/09/13 06:23:29;;;;;;;32.03;18.73;;;;;;;;;;5011385;28;20138;-66
2022/09/13 06:26:02;;;;;;;36.00;18.23;;;;;;;;;;5012674;28;20055;-65
2022/09/13 06:28:29;;;;;;;34.30;20.58;;;;;;;;;;5009247;28;20117;-66
2022/09/13 06:31:01;;;;;;;31.02;17.98;;;;;;;;;;5009880;28;20543;-66
2022/09/13 06:33:28;;;;;;;28.33;17.65;;;;;;;;;;5011969;28;20045;-66
2022/09/13 06:35:55;;;;;;;33.35;19.55;;;;;;;;;;5013250;28;20046;-65
2022/09/13 06:38:22;;;;;;;34.58;18.20;;;;;;;;;;5006982;28;20157;-66
2022/09/13 06:40:48;;;;;;;33.53;18.60;;;;;;;;;;5011260;28;20042;-66
2022/09/13 06:43:15;;;;;;;32.17;17.50;;;;;;;;;;5008766;28;20120;-65
2022/09/13 06:45:41;;;;;;;35.72;18.17;;;;;;;;;;5008999;28;20037;-67
2022/09/13 06:48:08;;;;;;;28.50;17.90;;;;;;;;;;5007506;28;20042;-66
2022/09/13 06:50:35;;;;;;;32.92;18.80;;;;;;;;;;5008068;28;20050;-66
2022/09/13 06:53:02;;;;;;;30.02;17.67;;;;;;;;;;5009529;28;20045;-66
2022/09/13 06:55:29;;;;;;;28.73;17.27;;;;;;;;;;5007007;28;20041;-67
2022/09/13 06:57:56;;;;;;;34.50;19.40;;;;;;;;;;5006050;28;22233;-67
2022/09/13 07:00:22;;;;;;;31.27;19.17;;;;;;;;;;4987608;28;20046;-66
2022/09/13 07:02:52;;;;;;;34.42;18.60;;;;;;;;;;5004824;28;20042;-67
2022/09/13 07:05:19;;;;;;;35.60;19.23;;;;;;;;;;5024533;28;20041;-66
2022/09/13 07:07:47;;;;;;;34.20;18.17;;;;;;;;;;5009030;28;20179;-66
2022/09/13 07:10:13;;;;;;;31.73;19.13;;;;;;;;;;5010586;28;20045;-66
2022/09/13 07:12:41;;;;;;;34.30;19.52;;;;;;;;;;5007118;28;20105;-66
2022/09/13 07:15:08;;;;;;;29.83;17.92;;;;;;;;;;5008722;28;20033;-66
2022/09/13 07:17:34;;;;;;;33.17;19.38;;;;;;;;;;5004939;28;20069;-67
2022/09/13 07:20:01;;;;;;;34.70;19.35;;;;;;;;;;5005798;28;20033;-67
2022/09/13 07:22:28;;;;;;;33.97;19.13;;;;;;;;;;5005854;28;20447;-65
2022/09/13 07:24:56;;;;;;;33.90;20.10;;;;;;;;;;5007137;28;20149;-67
2022/09/13 07:27:22;;;;;;;33.90;19.75;;;;;;;;;;5006556;28;20050;-66
2022/09/13 07:29:49;;;;;;;37.05;20.20;;;;;;;;;;5005729;28;20068;-66
2022/09/13 07:32:15;;;;;;;37.00;20.20;;;;;;;;;;5007193;28;20046;-67
2022/09/13 07:34:42;;;;;;;34.85;20.92;;;;;;;;;;5004339;28;20172;-66
2022/09/13 07:37:08;;;;;;;34.25;20.08;;;;;;;;;;5006258;28;20517;-65
2022/09/13 07:39:35;;;;;;;34.67;19.95;;;;;;;;;;5018509;28;20115;-66
2022/09/13 07:42:02;;;;;;;34.63;19.20;;;;;;;;;;5005476;28;20041;-66
2022/09/13 07:44:28;;;;;;;37.75;19.80;;;;;;;;;;5005595;28;20049;-66
2022/09/13 07:46:55;;;;;;;34.40;19.58;;;;;;;;;;5004265;28;20042;-65
2022/09/13 07:49:21;;;;;;;31.20;18.90;;;;;;;;;;5004289;28;20060;-66
2022/09/13 07:51:50;;;;;;;32.80;19.80;;;;;;;;;;5006280;28;20037;-66
2022/09/13 07:54:17;;;;;;;31.42;19.17;;;;;;;;;;5005766;28;20050;-66
2022/09/13 07:56:44;;;;;;;37.35;19.77;;;;;;;;;;5005596;28;20581;-66
2022/09/13 07:59:12;;;;;;;33.47;19.90;;;;;;;;;;5003672;28;20986;-66
2022/09/13 08:01:43;;;;;;;36.30;19.88;;;;;;;;;;5002878;28;20271;-66
2022/09/13 08:04:11;;;;;;;36.13;19.65;;;;;;;;;;5004032;28;20049;-66
2022/09/13 08:06:38;;;;;;;39.28;18.98;;;;;;;;;;5005119;28;20038;-68
2022/09/13 08:09:05;;;;;;;33.05;19.50;;;;;;;;;;5003884;28;20037;-66
2022/09/13 08:11:34;;;;;;;34.45;19.17;;;;;;;;;;5003277;28;20179;-66
2022/09/13 08:14:01;;;;;;;32.72;18.42;;;;;;;;;;5004663;28;20046;-66
2022/09/13 08:16:28;;;;;;;36.00;19.45;;;;;;;;;;5004698;28;20038;-65
2022/09/13 08:18:56;;;;;;;33.22;19.75;;;;;;;;;;5003602;28;20026;-65
2022/09/13 08:21:23;;;;;;;33.05;19.23;;;;;;;;;;5003797;28;20406;-66
2022/09/13 08:23:50;;;;;;;31.33;18.70;;;;;;;;;;5019697;28;20626;-65
2022/09/13 08:26:17;;;;;;;31.55;18.60;;;;;;;;;;5004411;28;20084;-65
2022/09/13 08:28:43;;;;;;;30.98;18.33;;;;;;;;;;5003385;28;20045;-66
2022/09/13 08:31:16;;;;;;;34.70;19.50;;;;;;;;;;5003360;28;20610;-64
2022/09/13 08:33:49;;;;;;;31.52;18.67;;;;;;;;;;5020412;28;20038;-64
2022/09/13 08:36:17;;;;;;;36.30;19.30;;;;;;;;;;5006286;28;20057;-65
2022/09/13 08:38:47;;;;;;;38.17;19.27;;;;;;;;;;5003608;28;20631;-66
2022/09/13 08:41:20;;;;;;;35.63;19.92;;;;;;;;;;5005520;28;20065;-66
2022/09/13 08:43:49;;;;;;;30.40;18.85;;;;;;;;;;5020577;28;20112;-65
2022/09/13 08:46:23;;;;;;;36.47;19.67;;;;;;;;;;5006016;28;20042;-66
2022/09/13 08:48:51;;;;;;;37.88;19.60;;;;;;;;;;5024855;28;20048;-66
2022/09/13 08:51:29;;;;;;;33.88;19.38;;;;;;;;;;5009173;28;20216;-65
2022/09/13 08:53:56;;;;;;;33.30;18.85;;;;;;;;;;5024305;28;20540;-65
2022/09/13 08:56:27;;;;;;;33.50;19.10;;;;;;;;;;5023026;28;21023;-66
2022/09/13 08:58:57;;;;;;;31.23;18.67;;;;;;;;;;5023411;28;20140;-67
2022/09/13 09:01:50;;;;;;;34.83;18.35;;;;;;;;;;5006524;28;20384;-66
2022/09/13 09:04:32;;;;;;;33.28;18.58;;;;;;;;;;5002726;28;20034;-66
2022/09/13 09:07:05;;;;;;;35.10;19.02;;;;;;;;;;5002254;28;20064;-66
2022/09/13 09:09:34;;;;;;;31.58;19.65;;;;;;;;;;5003331;28;20510;-66
2022/09/13 09:12:11;;;;;;;34.60;19.00;;;;;;;;;;5004907;28;20128;-66
2022/09/13 09:14:43;;;;;;;32.88;18.80;;;;;;;;;;5007359;28;20042;-66
2022/09/13 09:17:30;;;;;;;34.28;18.75;;;;;;;;;;5007158;28;20395;-66
2022/09/13 09:20:08;;;;;;;30.20;18.63;;;;;;;;;;5006080;28;21734;-65
2022/09/13 09:22:35;;;;;;;32.65;18.65;;;;;;;;;;5000014;28;20033;-65
2022/09/13 09:25:02;;;;;;;32.33;19.35;;;;;;;;;;5006343;28;20041;-65
2022/09/13 09:27:29;;;;;;;34.53;19.50;;;;;;;;;;5006544;28;20977;-66
2022/09/13 09:30:00;;;;;;;32.17;18.52;;;;;;;;;;5004004;28;20422;-65
2022/09/13 09:32:46;;;;;;;34.78;19.60;;;;;;;;;;5003384;28;20054;-64
2022/09/13 09:35:26;;;;;;;33.45;18.98;;;;;;;;;;5007286;28;20048;-65
2022/09/13 09:38:11;;;;;;;29.73;18.30;;;;;;;;;;5025576;28;20052;-63
2022/09/13 09:40:37;;;;;;;31.23;17.73;;;;;;;;;;5025265;28;20033;-66
2022/09/13 09:43:20;;;;;;;32.40;18.08;;;;;;;;;;5042401;28;20115;-65
2022/09/13 09:45:47;;;;;;;35.72;19.60;;;;;;;;;;5022502;28;20454;-65
2022/09/13 09:48:15;;;;;;;28.10;18.17;;;;;;;;;;5007317;28;20039;-65
2022/09/13 09:50:49;;;;;;;33.60;19.10;;;;;;;;;;5007316;28;20128;-65
2022/09/13 09:53:25;;;;;;;33.00;20.13;;;;;;;;;;5009639;28;20033;-65
2022/09/13 09:56:02;;;;;;;35.10;18.42;;;;;;;;;;5030238;28;20069;-65
2022/09/13 09:58:45;;;;;;;42.33;19.15;;;;;;;;;;5029390;28;20053;-65
2022/09/13 10:01:24;;;;;;;31.38;17.95;;;;;;;;;;5034110;28;20586;-65
2022/09/13 10:04:00;;;;;;;34.28;18.73;;;;;;;;;;5030222;28;20053;-65
2022/09/13 10:06:28;;;;;;;37.13;19.33;;;;;;;;;;5033261;28;20045;-66
2022/09/13 10:09:04;;;;;;;32.95;18.75;;;;;;;;;;5031543;28;20052;-66
2022/09/13 10:11:44;;;;;;;33.65;19.13;;;;;;;;;;5009231;28;20065;-66
2022/09/13 10:14:28;;;;;;;30.50;18.88;;;;;;;;;;5010141;28;20041;-64
2022/09/13 10:17:05;;;;;;;30.50;18.10;;;;;;;;;;5007833;28;20033;-66
2022/09/13 10:19:32;;;;;;;33.25;17.67;;;;;;;;;;5008054;28;20033;-66
2022/09/13 10:22:04;;;;;;;34.95;19.05;;;;;;;;;;5008432;28;20030;-65
2022/09/13 10:24:31;;;;;;;32.50;18.63;;;;;;;;;;5008251;28;20136;-65
2022/09/13 10:26:58;;;;;;;36.58;18.17;;;;;;;;;;5008593;28;20068;-66
2022/09/13 10:29:26;;;;;;;33.47;18.38;;;;;;;;;;5010267;28;20053;-66
2022/09/13 10:31:56;;;;;;;31.38;18.42;;;;;;;;;;5041872;28;20077;-65
2022/09/13 10:34:23;;;;;;;33.67;17.40;;;;;;;;;;5010063;28;20119;-66
2022/09/13 10:37:00;;;;;;;34.45;18.30;;;;;;;;;;5011121;28;20062;-66
2022/09/13 10:39:28;;;;;;;34.15;18.70;;;;;;;;;;5010321;28;20042;-67
2022/09/13 10:42:06;;;;;;;35.03;17.50;;;;;;;;;;5010213;28;20037;-66
2022/09/13 10:44:46;;;;;;;31.60;17.90;;;;;;;;;;5010474;28;20058;-67
2022/09/13 10:47:18;;;;;;;32.80;19.17;;;;;;;;;;5012146;28;20120;-66
2022/09/13 10:49:52;;;;;;;39.40;19.58;;;;;;;;;;5009185;28;20564;-65
2022/09/13 10:52:25;;;;;;;33.88;18.73;;;;;;;;;;5011437;28;20044;-67
2022/09/13 10:54:53;;;;;;;34.15;18.95;;;;;;;;;;5012724;28;20030;-67
2022/09/13 10:57:28;;;;;;;33.67;19.15;;;;;;;;;;5009999;28;20042;-65
2022/09/13 10:59:55;;;;;;;33.17;18.35;;;;;;;;;;5010330;28;20556;-66
2022/09/13 11:02:24;;;;;;;34.00;18.38;;;;;;;;;;5011504;28;20106;-65
2022/09/13 11:04:51;;;;;;;33.17;17.65;;;;;;;;;;5011495;28;20068;-66
2022/09/13 11:07:37;;;;;;;32.45;18.08;;;;;;;;;;5013111;28;20042;-66
2022/09/13 11:10:03;;;;;;;35.13;18.38;;;;;;;;;;5018190;28;20053;-66
2022/09/13 11:12:45;;;;;;;33.25;18.30;;;;;;;;;;5016472;23;20057;-66
2022/09/13 11:15:30;;;;;;;33.03;18.75;;;;;;;;;;5018911;28;20042;-65
2022/09/13 11:18:29;;;;;;;34.08;18.90;;;;;;;;;;5018017;28;20056;-66
2022/09/13 11:21:21;;;;;;;30.33;18.63;;;;;;;;;;4990662;28;20037;-67
2022/09/13 11:23:48;;;;;;;34.03;18.73;;;;;;;;;;5018425;28;20088;-66
2022/09/13 11:26:33;;;;;;;36.65;19.90;;;;;;;;;;5019702;28;20125;-67
2022/09/13 11:29:10;;;;;;;38.58;20.17;;;;;;;;;;5015716;28;20038;-65
2022/09/13 11:31:55;;;;;;;32.15;18.00;;;;;;;;;;5014966;28;20049;-65
2022/09/13 11:34:40;;;;;;;33.60;19.60;;;;;;;;;;5046544;28;20667;-66
2022/09/13 11:37:20;;;;;;;31.02;19.20;;;;;;;;;;5046224;28;20145;-66
2022/09/13 11:40:03;;;;;;;39.08;20.25;;;;;;;;;;5013915;28;20046;-65
2022/09/13 11:42:48;;;;;;;33.13;19.23;;;;;;;;;;5015189;28;20136;-65
2022/09/13 11:45:26;;;;;;;33.95;19.02;;;;;;;;;;5015672;28;20124;-65
2022/09/13 11:48:11;;;;;;;33.83;19.60;;;;;;;;;;5015150;28;20045;-65
2022/09/13 11:51:01;;;;;;;36.47;19.23;;;;;;;;;;5015810;28;20077;-65
2022/09/13 11:53:49;;;;;;;30.75;18.65;;;;;;;;;;5014864;28;20056;-64
2022/09/13 11:56:23;;;;;;;35.28;19.25;;;;;;;;;;5016856;28;20103;-65
2022/09/13 11:58:56;;;;;;;37.17;19.10;;;;;;;;;;5045499;28;20038;-66
2022/09/13 12:01:32;;;;;;;43.17;18.92;;;;;;;;;;5044595;28;20056;-65
2022/09/13 12:04:02;;;;;;;34.33;19.52;;;;;;;;;;5044158;28;20088;-65
2022/09/13 12:06:31;;;;;;;32.60;19.17;;;;;;;;;;5013651;28;20050;-65
2022/09/13 12:09:07;;;;;;;38.25;18.73;;;;;;;;;;5024400;28;20036;-66
2022/09/13 12:11:36;;;;;;;37.90;19.27;;;;;;;;;;5012802;28;20079;-66
2022/09/13 12:14:21;;;;;;;39.53;19.50;;;;;;;;;;5011454;28;20049;-65
2022/09/13 12:16:50;;;;;;;35.70;20.58;;;;;;;;;;5011267;28;20034;-65
2022/09/13 12:19:20;;;;;;;34.10;19.38;;;;;;;;;;5013516;28;20691;-63
2022/09/13 12:21:49;;;;;;;41.38;18.90;;;;;;;;;;5012310;28;20057;-64
2022/09/13 12:24:18;;;;;;;34.92;19.63;;;;;;;;;;5024715;28;20914;-63
2022/09/13 12:26:48;;;;;;;35.08;20.95;;;;;;;;;;5013152;28;20047;-63
2022/09/13 12:29:18;;;;;;;36.67;19.90;;;;;;;;;;5013884;28;20040;-63
2022/09/13 12:31:44;;;;;;;40.08;20.25;;;;;;;;;;5012403;28;20711;-63
2022/09/13 12:34:17;;;;;;;37.80;20.00;;;;;;;;;;5013679;28;20148;-64
2022/09/13 12:37:14;;;;;;;33.58;20.30;;;;;;;;;;5010491;28;20033;-63
2022/09/13 12:39:53;;;;;;;32.63;19.85;;;;;;;;;;4978449;28;20087;-63
2022/09/13 12:42:25;;;;;;;39.38;19.40;;;;;;;;;;5005453;28;20176;-64
2022/09/13 12:45:11;;;;;;;33.72;19.55;;;;;;;;;;5009336;28;20049;-62
2022/09/13 12:47:38;;;;;;;36.20;19.92;;;;;;;;;;5009647;28;20049;-64
2022/09/13 12:50:13;;;;;;;36.15;20.20;;;;;;;;;;5014024;28;20108;-65
2022/09/13 12:52:49;;;;;;;35.10;20.00;;;;;;;;;;5011638;28;20418;-65
2022/09/13 12:55:34;;;;;;;38.60;19.83;;;;;;;;;;5014552;28;20064;-65
2022/09/13 12:58:04;;;;;;;42.28;21.13;;;;;;;;;;5013116;28;20061;-66
2022/09/13 13:00:37;;;;;;;32.67;19.15;;;;;;;;;;5008178;28;20143;-64
2022/09/13 13:03:10;;;;;;;;;;;;;;;;;;5014067;28;20053;-63
2022/09/13 13:05:43;;;;;;;33.88;19.55;;;;;;;;;;5013902;28;19917;-61
2022/09/13 13:08:21;;;;;;;36.85;20.38;;;;;;;;;;5015480;28;20499;-64
2022/09/13 13:11:02;;;;;;;38.88;19.75;;;;;;;;;;5012969;28;20046;-63
2022/09/13 13:13:35;;;;;;;32.95;18.35;;;;;;;;;;5013132;28;20075;-63
2022/09/13 13:16:03;;;;;;;35.00;19.45;;;;;;;;;;5015149;28;20429;-63
2022/09/13 13:18:30;;;;;;;36.55;19.13;;;;;;;;;;5014703;28;20044;-63
2022/09/13 13:20:56;;;;;;;34.70;19.50;;;;;;;;;;5014163;28;20167;-64
2022/09/13 13:23:26;;;;;;;28.35;18.27;;;;;;;;;;5012960;28;20045;-63
2022/09/13 13:25:56;;;;;;;34.35;19.25;;;;;;;;;;5011372;28;20125;-63
2022/09/13 13:28:42;;;;;;;31.25;19.48;;;;;;;;;;5015431;28;20041;-63
2022/09/13 13:31:28;;;;;;;32.40;19.27;;;;;;;;;;5013006;28;20112;-63
2022/09/13 13:34:01;;;;;;;36.28;18.75;;;;;;;;;;4970326;28;20034;-64
2022/09/13 13:36:31;;;;;;;33.72;19.27;;;;;;;;;;5000160;28;20102;-64
2022/09/13 13:39:00;;;;;;;33.20;19.08;;;;;;;;;;5014931;28;20690;-63
2022/09/13 13:41:36;;;;;;;35.08;18.98;;;;;;;;;;5045079;28;20075;-64
2022/09/13 13:44:16;;;;;;;42.63;19.48;;;;;;;;;;5011677;28;20041;-64
2022/09/13 13:46:44;;;;;;;36.08;18.95;;;;;;;;;;5013147;28;20053;-63
2022/09/13 13:49:29;;;;;;;32.85;19.00;;;;;;;;;;5013269;28;20134;-63
2022/09/13 13:52:12;;;;;;;35.67;18.65;;;;;;;;;;5038709;28;20037;-65
2022/09/13 13:54:42;;;;;;;33.78;18.75;;;;;;;;;;5010229;28;20049;-64
2022/09/13 13:57:21;;;;;;;34.58;19.30;;;;;;;;;;5013383;28;20160;-63
2022/09/13 13:59:50;;;;;;;36.00;19.42;;;;;;;;;;5043231;28;20034;-64
2022/09/13 14:02:19;;;;;;;36.83;19.85;;;;;;;;;;5043666;28;20041;-65
2022/09/13 14:05:08;;;;;;;36.72;19.60;;;;;;;;;;5012384;28;20469;-64
2022/09/13 14:07:34;;;;;;;38.60;19.27;;;;;;;;;;5012549;28;20042;-64
2022/09/13 14:10:10;;;;;;;32.67;18.08;;;;;;;;;;5014638;28;20042;-68
2022/09/13 14:12:48;;;;;;;39.08;19.02;;;;;;;;;;5014049;28;20097;-65
2022/09/13 14:15:24;;;;;;;33.00;19.08;;;;;;;;;;5013658;28;20121;-64
2022/09/13 14:18:09;;;;;;;40.70;18.58;;;;;;;;;;5014158;28;20168;-64
2022/09/13 14:20:36;;;;;;;33.03;19.42;;;;;;;;;;5015555;28;20041;-65
2022/09/13 14:23:17;;;;;;;31.63;17.40;;;;;;;;;;5016961;28;20128;-65
2022/09/13 14:25:44;;;;;;;34.80;17.92;;;;;;;;;;5014546;28;20038;-65
2022/09/13 14:28:14;;;;;;;29.88;17.73;;;;;;;;;;5013100;28;20041;-65
2022/09/13 14:30:40;;;;;;;32.47;17.38;;;;;;;;;;5042785;28;20506;-64
2022/09/13 14:33:18;;;;;;;30.98;18.40;;;;;;;;;;5010830;28;20037;-64
2022/09/13 14:35:45;;;;;;;31.40;16.13;;;;;;;;;;5011944;28;20045;-65
2022/09/13 14:38:18;;;;;;;32.92;18.08;;;;;;;;;;5015021;28;20030;-65
2022/09/13 14:40:48;;;;;;;37.20;18.42;;;;;;;;;;5047311;28;20041;-66
2022/09/13 14:43:16;;;;;;;32.45;18.33;;;;;;;;;;5016348;28;20048;-66
2022/09/13 14:45:45;;;;;;;32.30;18.70;;;;;;;;;;5016692;28;20099;-67